Time,TemperatureF,DewpointF,PressureIn,WindDirection,WindDirectionDegrees,WindSpeedMPH,WindSpeedGustMPH,Humidity,HourlyPrecipIn,Conditions,Clouds,dailyrainin,SoftwareType,DateUTC
2013-02-06 00:00:00,48.6,23.5,25.51,SSW,213,0.0,0.0,37,0.00,,---,0.00,VWS V13.01,2013-02-06 07:00:00,
2013-02-06 00:20:00,48.2,23.2,25.51,SSW,213,0.0,0.0,37,0.00,,---,0.00,VWS V13.01,2013-02-06 07:20:00,
2013-02-06 00:40:00,47.3,23.6,25.51,SW,227,0.0,0.0,39,0.00,,---,0.00,VWS V13.01,2013-02-06 07:40:00,
2013-02-06 01:00:00,46.8,23.7,25.51,SW,227,0.0,0.0,40,0.00,,---,0.00,VWS V13.01,2013-02-06 08:00:00,
2013-02-06 01:20:00,46.4,24.0,25.51,SW,227,0.0,0.0,41,0.00,,---,0.00,VWS V13.01,2013-02-06 08:20:00,
2013-02-06 01:40:00,46.0,24.2,25.51,SW,217,0.0,0.0,42,0.00,,---,0.00,VWS V13.01,2013-02-06 08:40:00,
2013-02-06 02:00:00,45.3,24.2,25.48,SW,230,4.0,4.5,43,0.00,,---,0.00,VWS V13.01,2013-02-06 09:00:00,
2013-02-06 02:20:00,45.0,23.8,25.51,SW,228,3.6,5.4,43,0.00,,---,0.00,VWS V13.01,2013-02-06 09:20:00,
2013-02-06 02:40:00,44.6,24.0,25.51,SW,230,0.0,4.0,44,0.00,,---,0.00,VWS V13.01,2013-02-06 09:40:00,
2013-02-06 03:00:00,44.6,24.6,25.51,North,0,0.0,0.0,45,0.00,,---,0.00,VWS V13.01,2013-02-06 10:00:00,
2013-02-06 03:20:00,45.1,25.1,25.51,North,357,0.0,4.9,45,0.00,,---,0.00,VWS V13.01,2013-02-06 10:20:00,
2013-02-06 03:40:00,45.3,24.7,25.51,West,280,0.0,4.0,44,0.00,,---,0.00,VWS V13.01,2013-02-06 10:40:00,
2013-02-06 04:00:00,44.4,24.4,25.48,NW,305,3.6,4.9,45,0.00,,---,0.00,VWS V13.01,2013-02-06 11:00:00,
2013-02-06 04:20:00,43.9,25.0,25.48,WNW,289,3.6,4.0,47,0.00,,---,0.00,VWS V13.01,2013-02-06 11:20:00,
2013-02-06 04:40:00,43.7,24.8,25.48,WNW,284,3.1,4.0,47,0.00,,---,0.00,VWS V13.01,2013-02-06 11:40:00,
2013-02-06 05:00:00,42.8,24.5,25.51,WSW,239,0.0,4.0,48,0.00,,---,0.00,VWS V13.01,2013-02-06 12:00:00,
2013-02-06 05:20:00,42.3,25.0,25.51,NE,45,0.0,0.0,50,0.00,,---,0.00,VWS V13.01,2013-02-06 12:20:00,
2013-02-06 05:40:00,41.5,24.8,25.48,SSE,149,0.0,3.6,51,0.00,,---,0.00,VWS V13.01,2013-02-06 12:40:00,
2013-02-06 06:00:00,41.7,24.9,25.51,WSW,247,0.0,0.0,51,0.00,,---,0.00,VWS V13.01,2013-02-06 13:00:00,
2013-02-06 06:20:00,41.0,24.3,25.51,SW,217,3.6,5.4,51,0.00,,---,0.00,VWS V13.01,2013-02-06 13:20:00,
2013-02-06 06:40:00,41.2,24.9,25.51,SW,221,3.1,3.6,52,0.00,,---,0.00,VWS V13.01,2013-02-06 13:40:00,
2013-02-06 07:00:00,40.6,24.4,25.51,SW,226,3.1,4.0,52,0.00,,---,0.00,VWS V13.01,2013-02-06 14:00:00,
2013-02-06 07:20:00,40.5,24.7,25.51,SW,226,4.0,4.0,53,0.00,,---,0.00,VWS V13.01,2013-02-06 14:20:00,
2013-02-06 07:40:00,40.8,25.0,25.51,SW,234,4.0,4.0,53,0.00,,---,0.00,VWS V13.01,2013-02-06 14:40:00,
2013-02-06 08:00:00,44.4,27.4,25.51,SW,221,2.7,4.0,51,0.00,,---,0.00,VWS V13.01,2013-02-06 15:00:00,
2013-02-06 08:20:00,53.4,30.3,25.51,SW,235,0.0,3.6,41,0.00,,---,0.00,VWS V13.01,2013-02-06 15:20:00,
2013-02-06 08:40:00,52.3,26.2,25.51,SE,127,0.0,4.0,36,0.00,,---,0.00,VWS V13.01,2013-02-06 15:40:00,
2013-02-06 09:00:00,51.6,26.2,25.51,NE,50,3.6,4.0,37,0.00,,---,0.00,VWS V13.01,2013-02-06 16:00:00,
2013-02-06 09:20:00,53.1,27.5,25.54,SE,126,0.0,3.6,37,0.00,,---,0.00,VWS V13.01,2013-02-06 16:20:00,
2013-02-06 09:40:00,54.7,27.6,25.54,NNE,27,0.0,0.0,35,0.00,,---,0.00,VWS V13.01,2013-02-06 16:40:00,
2013-02-06 10:00:00,55.8,27.1,25.54,North,0,2.2,3.1,33,0.00,,---,0.00,VWS V13.01,2013-02-06 17:00:00,
2013-02-06 10:20:00,57.4,26.2,25.54,ENE,71,2.7,2.7,30,0.00,,---,0.00,VWS V13.01,2013-02-06 17:20:00,
2013-02-06 10:40:00,57.6,25.6,25.54,ENE,71,2.7,2.7,29,0.00,,---,0.00,VWS V13.01,2013-02-06 17:40:00,
2013-02-06 11:00:00,59.0,25.1,25.54,North,357,5.4,5.4,27,0.00,,---,0.00,VWS V13.01,2013-02-06 18:00:00,
2013-02-06 11:20:00,60.1,26.0,25.54,NW,325,5.4,5.4,27,0.00,,---,0.00,VWS V13.01,2013-02-06 18:20:00,
2013-02-06 11:40:00,62.2,26.0,25.51,ENE,58,5.4,5.8,25,0.00,,---,0.00,VWS V13.01,2013-02-06 18:40:00,
2013-02-06 12:00:00,65.5,26.7,25.51,ENE,58,5.4,5.4,23,0.00,,---,0.00,VWS V13.01,2013-02-06 19:00:00,
2013-02-06 12:20:00,68.2,27.9,25.51,West,269,0.0,5.4,22,0.00,,---,0.00,VWS V13.01,2013-02-06 19:20:00,
2013-02-06 12:40:00,68.0,25.5,25.51,WSW,246,5.8,8.3,20,0.00,,---,0.00,VWS V13.01,2013-02-06 19:40:00,
2013-02-06 13:00:00,67.5,25.0,25.48,ENE,57,3.1,5.8,20,0.00,,---,0.00,VWS V13.01,2013-02-06 20:00:00,
2013-02-06 13:20:00,68.5,25.9,25.48,SW,226,2.7,8.1,20,0.00,,---,0.00,VWS V13.01,2013-02-06 20:20:00,
2013-02-06 13:40:00,69.6,22.9,25.48,SSW,209,5.8,13.2,17,0.00,,---,0.00,VWS V13.01,2013-02-06 20:40:00,
2013-02-06 14:00:00,68.4,21.9,25.48,SSW,198,8.7,10.1,17,0.00,,---,0.00,VWS V13.01,2013-02-06 21:00:00,
2013-02-06 14:20:00,68.4,21.9,25.48,SW,220,5.4,13.2,17,0.00,,---,0.00,VWS V13.01,2013-02-06 21:20:00,
2013-02-06 14:40:00,70.9,23.9,25.48,WSW,240,6.3,10.5,17,0.00,,---,0.00,VWS V13.01,2013-02-06 21:40:00,
2013-02-06 15:00:00,72.0,23.4,25.48,SW,224,8.1,12.3,16,0.00,,---,0.00,VWS V13.01,2013-02-06 22:00:00,
2013-02-06 15:20:00,71.6,23.1,25.48,SW,223,5.4,10.1,16,0.00,,---,0.00,VWS V13.01,2013-02-06 22:20:00,
2013-02-06 15:40:00,72.9,24.1,25.48,West,273,5.4,12.3,16,0.00,,---,0.00,VWS V13.01,2013-02-06 22:40:00,
2013-02-06 16:00:00,71.8,23.2,25.48,West,277,8.7,12.3,16,0.00,,---,0.00,VWS V13.01,2013-02-06 23:00:00,
2013-02-06 16:20:00,70.9,23.9,25.48,WSW,241,8.3,10.1,17,0.00,,---,0.00,VWS V13.01,2013-02-06 23:20:00,
2013-02-06 16:40:00,68.2,21.7,25.48,SW,224,9.6,10.5,17,0.00,,---,0.00,VWS V13.01,2013-02-06 23:40:00,
2013-02-06 17:00:00,67.5,21.2,25.51,SW,228,10.1,10.1,17,0.00,,---,0.00,VWS V13.01,2013-02-07 00:00:00,
2013-02-06 17:20:00,66.2,20.1,25.51,West,264,7.2,10.1,17,0.00,,---,0.00,VWS V13.01,2013-02-07 00:20:00,
2013-02-06 17:40:00,63.7,23.0,25.51,WSW,241,5.4,11.0,21,0.00,,---,0.00,VWS V13.01,2013-02-07 00:40:00,
2013-02-06 18:00:00,61.7,21.4,25.51,West,272,3.6,8.7,21,0.00,,---,0.00,VWS V13.01,2013-02-07 01:00:00,
2013-02-06 18:20:00,60.4,21.4,25.51,WNW,299,3.1,8.7,22,0.00,,---,0.00,VWS V13.01,2013-02-07 01:20:00,
2013-02-06 18:40:00,59.2,22.4,25.54,West,271,2.2,6.3,24,0.00,,---,0.00,VWS V13.01,2013-02-07 01:40:00,
2013-02-06 19:00:00,58.1,21.5,25.54,SW,226,5.4,5.4,24,0.00,,---,0.00,VWS V13.01,2013-02-07 02:00:00,
2013-02-06 19:20:00,57.2,21.7,25.54,SW,220,4.0,6.3,25,0.00,,---,0.00,VWS V13.01,2013-02-07 02:20:00,
2013-02-06 19:40:00,56.7,21.3,25.54,SW,219,4.0,4.9,25,0.00,,---,0.00,VWS V13.01,2013-02-07 02:40:00,
2013-02-06 20:00:00,56.3,21.0,25.54,WSW,241,4.0,5.8,25,0.00,,---,0.00,VWS V13.01,2013-02-07 03:00:00,
2013-02-06 20:20:00,55.8,21.4,25.54,SW,228,5.8,6.7,26,0.00,,---,0.00,VWS V13.01,2013-02-07 03:20:00,
2013-02-06 20:40:00,55.0,20.8,25.54,SW,230,3.1,5.8,26,0.00,,---,0.00,VWS V13.01,2013-02-07 03:40:00,
2013-02-06 21:00:00,54.0,20.8,25.57,NW,304,3.1,4.9,27,0.00,,---,0.00,VWS V13.01,2013-02-07 04:00:00,
2013-02-06 21:20:00,53.1,20.8,25.57,NW,306,4.9,7.6,28,0.00,,---,0.00,VWS V13.01,2013-02-07 04:20:00,
2013-02-06 21:40:00,52.3,21.0,25.57,WNW,296,4.0,6.3,29,0.00,,---,0.00,VWS V13.01,2013-02-07 04:40:00,
2013-02-06 22:00:00,51.6,21.2,25.57,WNW,284,6.3,6.7,30,0.00,,---,0.00,VWS V13.01,2013-02-07 05:00:00,
2013-02-06 22:20:00,50.7,22.0,25.57,WNW,287,4.0,8.3,32,0.00,,---,0.00,VWS V13.01,2013-02-07 05:20:00,
2013-02-06 22:40:00,50.4,22.4,25.57,WNW,301,5.4,6.3,33,0.00,,---,0.00,VWS V13.01,2013-02-07 05:40:00,
2013-02-06 23:00:00,50.0,22.8,25.60,WNW,290,5.8,8.1,34,0.00,,---,0.00,VWS V13.01,2013-02-07 06:00:00,
2013-02-06 23:20:00,49.8,23.3,25.60,SW,223,4.9,6.3,35,0.00,,---,0.00,VWS V13.01,2013-02-07 06:20:00,
2013-02-06 23:40:00,49.1,23.3,25.60,West,262,3.6,6.3,36,0.00,,---,0.00,VWS V13.01,2013-02-07 06:40:00,